Streator West, Illinois
Current Conditions -  °F | °C
As of 9:15 AM on Saturday 25 Oct 2014 (Local Time) from KPNT Reporting Station
Haze Haze  
Wind Chill: 58°   Ceiling: 200
Heat Index: 58°   Visibility: 2mi
Dew Point: 58°   Wind: 10mph
Humidity: 97%   Direction: 280°W
Pressure: 30"   Gusts: NA
Location:  41.1182°N, 88.8294°W
Report Text: KPNT 251415Z AUTO 28009KT 2SM BR OVC002 15/14 A3000 RMK AO2 T01460142
Loading
Personal Weather Stations






























Interactive Weather Map
Tropical Storm Tracking
New forecast layout! Learn more

10-Day Weather Forecast

Advertisements
Track Severe Weather on mobile